createdAt,value
2018-09-11T00:01:58.522Z,5.03
2018-09-11T00:04:02.423Z,5.03
2018-09-11T00:06:06.424Z,4.97
2018-09-11T00:08:10.440Z,4.27
2018-09-11T00:10:16.082Z,5.00
2018-09-11T00:12:20.111Z,5.00
2018-09-11T00:14:24.458Z,5.07
2018-09-11T00:16:28.748Z,5.00
2018-09-11T00:18:32.750Z,5.50
2018-09-11T00:20:36.666Z,5.23
2018-09-11T00:22:40.707Z,4.67
2018-09-11T00:24:44.665Z,5.30
2018-09-11T00:26:48.653Z,4.87
2018-09-11T00:28:53.184Z,4.00
2018-09-11T00:30:57.808Z,4.43
2018-09-11T00:33:02.709Z,4.87
2018-09-11T00:35:07.007Z,4.53
2018-09-11T00:37:11.077Z,4.80
2018-09-11T00:39:15.190Z,5.10
2018-09-11T00:41:19.598Z,4.90
2018-09-11T00:43:23.578Z,4.77
2018-09-11T00:45:28.336Z,5.07
2018-09-11T00:47:33.799Z,4.70
2018-09-11T00:49:37.891Z,4.97
2018-09-11T00:51:42.657Z,5.43
2018-09-11T00:53:47.006Z,5.40
2018-09-11T00:55:51.036Z,4.57
2018-09-11T00:57:56.007Z,4.87
2018-09-11T01:00:00.516Z,4.70
2018-09-11T01:02:05.488Z,4.53
2018-09-11T01:04:09.498Z,4.97
2018-09-11T01:06:14.621Z,4.73
2018-09-11T01:08:18.640Z,4.43
2018-09-11T01:10:22.609Z,4.80
2018-09-11T01:12:26.911Z,5.50
2018-09-11T01:14:30.931Z,5.23
2018-09-11T01:16:34.899Z,4.60
2018-09-11T01:18:40.167Z,5.43
2018-09-11T01:20:45.433Z,5.33
2018-09-11T01:22:51.184Z,5.03
2018-09-11T01:24:56.873Z,4.60
2018-09-11T01:27:02.291Z,4.80
2018-09-11T01:29:07.702Z,5.10
2018-09-11T01:31:15.898Z,4.77
2018-09-11T01:33:20.816Z,5.00
2018-09-11T01:35:25.929Z,5.63
2018-09-11T01:37:30.389Z,5.40
2018-09-11T01:39:35.271Z,5.17
2018-09-11T01:41:40.807Z,5.17
2018-09-11T01:43:44.842Z,5.53
2018-09-11T01:45:49.624Z,6.17
2018-09-11T01:47:54.221Z,5.50
2018-09-11T01:50:01.121Z,5.93
2018-09-11T01:52:05.167Z,6.37
2018-09-11T01:54:09.799Z,6.60
2018-09-11T01:56:14.811Z,6.60
2018-09-11T01:58:19.299Z,6.43
2018-09-11T02:00:25.175Z,6.47
2018-09-11T02:02:29.548Z,6.60
2018-09-11T02:04:33.511Z,6.00
2018-09-11T02:06:37.518Z,6.07
2018-09-11T02:08:41.575Z,5.10
2018-09-11T02:10:45.839Z,5.33
2018-09-11T02:12:49.939Z,5.60
2018-09-11T02:14:54.219Z,5.90
2018-09-11T02:16:58.147Z,5.40
2018-09-11T02:19:02.327Z,5.57
2018-09-11T02:21:06.876Z,5.03
2018-09-11T02:23:10.830Z,5.80
2018-09-11T02:25:16.110Z,5.23
2018-09-11T02:27:20.424Z,5.90
2018-09-11T02:29:24.403Z,6.23
2018-09-11T02:31:28.427Z,5.40
2018-09-11T02:33:32.509Z,4.90
2018-09-11T02:35:39.892Z,5.33
2018-09-11T02:37:43.852Z,5.30
2018-09-11T02:39:48.108Z,5.67
2018-09-11T02:41:52.039Z,4.90
2018-09-11T02:43:56.064Z,4.97
2018-09-11T02:46:00.491Z,5.50
2018-09-11T02:48:04.770Z,5.33
2018-09-11T02:50:09.031Z,5.60
2018-09-11T02:52:14.592Z,5.43
2018-09-11T02:54:18.555Z,5.67
2018-09-11T02:56:23.356Z,5.20
2018-09-11T02:58:27.818Z,5.40
2018-09-11T03:00:31.820Z,6.37
2018-09-11T03:02:35.886Z,6.70
2018-09-11T03:04:41.147Z,5.70
2018-09-11T03:06:45.188Z,6.37
2018-09-11T03:08:49.141Z,6.53
2018-09-11T03:10:53.532Z,6.50
2018-09-11T03:12:58.928Z,6.87
2018-09-11T03:15:03.052Z,6.40
2018-09-11T03:17:08.420Z,6.30
2018-09-11T03:19:12.379Z,6.03
2018-09-11T03:21:16.296Z,7.10
2018-09-11T03:23:21.608Z,6.37
2018-09-11T03:25:25.547Z,6.67
2018-09-11T03:27:30.848Z,6.30
2018-09-11T03:29:34.783Z,6.70
2018-09-11T03:31:38.743Z,6.90
2018-09-11T03:33:42.788Z,6.27
2018-09-11T03:35:47.023Z,7.03
2018-09-11T03:37:51.040Z,5.83
2018-09-11T03:39:55.947Z,6.70
2018-09-11T03:42:00.268Z,6.87
2018-09-11T03:44:05.067Z,6.40
2018-09-11T03:46:09.002Z,6.03
2018-09-11T03:48:13.479Z,5.80
2018-09-11T03:50:18.123Z,6.53
2018-09-11T03:52:22.214Z,7.53
2018-09-11T03:54:26.377Z,7.67
2018-09-11T03:56:30.458Z,7.30
2018-09-11T03:58:34.546Z,7.63
2018-09-11T04:00:39.611Z,7.37
2018-09-11T04:02:43.576Z,7.50
2018-09-11T04:04:47.749Z,7.57
2018-09-11T04:06:52.734Z,7.43
2018-09-11T04:08:56.668Z,7.23
2018-09-11T04:11:00.648Z,8.03
2018-09-11T04:13:04.966Z,7.70
2018-09-11T04:15:08.900Z,7.20
2018-09-11T04:17:12.839Z,6.93
2018-09-11T04:19:16.803Z,6.83
2018-09-11T04:21:20.751Z,6.60
2018-09-11T04:23:24.786Z,7.20
2018-09-11T04:25:29.301Z,6.70
2018-09-11T04:27:33.351Z,5.93
2018-09-11T04:29:37.274Z,6.47
2018-09-11T04:31:41.717Z,6.20
2018-09-11T04:33:45.969Z,6.17
2018-09-11T04:35:50.011Z,6.00
2018-09-11T04:37:58.147Z,6.30
2018-09-11T04:40:02.204Z,6.23
2018-09-11T04:42:06.153Z,6.33
2018-09-11T04:44:10.111Z,5.80
2018-09-11T04:46:14.533Z,6.13
2018-09-11T04:48:18.534Z,6.30
2018-09-11T04:50:22.933Z,6.33
2018-09-11T04:52:27.512Z,6.30
2018-09-11T04:54:31.470Z,6.73
2018-09-11T04:56:37.936Z,6.40
2018-09-11T04:58:42.031Z,7.23
2018-09-11T05:00:47.252Z,6.90
2018-09-11T05:02:51.525Z,7.00
2018-09-11T05:04:55.512Z,8.23
2018-09-11T05:06:59.645Z,7.40
2018-09-11T05:09:04.663Z,8.30
2018-09-11T05:11:10.341Z,7.47
2018-09-11T05:13:14.383Z,7.57
2018-09-11T05:15:21.017Z,7.57
2018-09-11T05:17:25.027Z,7.73
2018-09-11T05:19:29.004Z,8.97
2018-09-11T05:21:33.267Z,8.47
2018-09-11T05:23:43.024Z,8.70
2018-09-11T05:25:47.516Z,7.77
2018-09-11T05:27:53.300Z,8.20
2018-09-11T05:29:57.406Z,8.47
2018-09-11T05:32:07.106Z,9.17
2018-09-11T05:34:15.600Z,7.87
2018-09-11T05:36:19.664Z,9.17
2018-09-11T05:38:23.621Z,8.90
2018-09-11T05:40:28.119Z,9.37
2018-09-11T05:42:32.087Z,8.90
2018-09-11T05:44:40.663Z,8.40
2018-09-11T05:46:45.537Z,9.00
2018-09-11T05:48:50.934Z,8.40
2018-09-11T05:50:54.930Z,9.13
2018-09-11T05:53:01.251Z,9.20
2018-09-11T05:55:06.417Z,9.47
2018-09-11T05:57:12.489Z,8.57
2018-09-11T05:59:17.820Z,8.37
2018-09-11T06:01:25.487Z,7.43
2018-09-11T06:03:30.232Z,7.60
2018-09-11T06:05:35.336Z,7.70
2018-09-11T06:07:39.293Z,7.90
2018-09-11T06:09:43.394Z,8.60
2018-09-11T06:11:47.823Z,8.53
2018-09-11T06:13:54.361Z,7.77
2018-09-11T06:15:58.701Z,9.30
2018-09-11T06:18:03.759Z,8.43
2018-09-11T06:20:08.231Z,7.47
2018-09-11T06:22:12.200Z,7.77
2018-09-11T06:24:17.249Z,8.37
2018-09-11T06:26:22.622Z,8.50
2018-09-11T06:28:30.514Z,7.63
2018-09-11T06:30:34.528Z,7.50
2018-09-11T06:32:39.770Z,8.20
2018-09-11T06:34:47.581Z,6.50
2018-09-11T06:36:51.828Z,7.57
2018-09-11T06:38:55.788Z,7.83
2018-09-11T06:40:59.892Z,7.27
2018-09-11T06:43:10.975Z,7.43
2018-09-11T06:45:16.484Z,7.57
2018-09-11T06:47:21.256Z,7.60
2018-09-11T06:49:25.523Z,8.00
2018-09-11T06:51:31.874Z,7.33
2018-09-11T06:53:40.411Z,7.53
2018-09-11T06:55:52.409Z,7.93
2018-09-11T06:57:58.299Z,7.93
2018-09-11T07:00:02.325Z,7.70
2018-09-11T07:02:07.379Z,7.63
2018-09-11T07:04:11.340Z,8.07
2018-09-11T07:06:16.235Z,7.80
2018-09-11T07:08:24.810Z,7.87
2018-09-11T07:10:29.189Z,7.70
2018-09-11T07:12:33.690Z,7.03
2018-09-11T07:14:38.028Z,9.23
2018-09-11T07:16:42.934Z,8.20
2018-09-11T07:18:47.628Z,7.83
2018-09-11T07:20:54.991Z,8.07
2018-09-11T07:22:59.628Z,8.90
2018-09-11T07:25:05.496Z,7.47
2018-09-11T07:27:09.795Z,6.00
2018-09-11T07:29:13.908Z,5.70
2018-09-11T07:31:17.969Z,5.07
2018-09-11T07:33:23.360Z,4.43
2018-09-11T07:35:27.463Z,5.50
2018-09-11T07:37:33.371Z,4.90
2018-09-11T07:39:37.733Z,4.87
2018-09-11T07:41:45.599Z,5.03
2018-09-11T07:43:49.613Z,4.20
2018-09-11T07:45:54.511Z,3.80
2018-09-11T07:47:59.178Z,3.73
2018-09-11T07:50:03.264Z,3.40
2018-09-11T07:52:08.911Z,3.27
2018-09-11T07:54:13.924Z,3.07
2018-09-11T07:56:19.282Z,3.10
2018-09-11T07:58:24.592Z,2.90
2018-09-11T08:00:28.836Z,3.03
2018-09-11T08:02:32.823Z,2.83
2018-09-11T08:04:42.576Z,2.90
2018-09-11T08:06:48.277Z,2.93
2018-09-11T08:08:52.332Z,2.97
2018-09-11T08:10:56.383Z,2.63
2018-09-11T08:13:02.055Z,2.47
2018-09-11T08:15:07.206Z,3.00
2018-09-11T08:17:11.560Z,2.73
2018-09-11T08:19:17.409Z,2.97
2018-09-11T08:21:23.782Z,2.60
2018-09-11T08:23:28.272Z,2.93
2018-09-11T08:25:33.863Z,3.07
2018-09-11T08:27:39.032Z,3.20
2018-09-11T08:29:44.415Z,3.37
2018-09-11T08:31:49.673Z,2.80
2018-09-11T08:33:54.766Z,2.67
2018-09-11T08:36:01.139Z,2.50
2018-09-11T08:38:07.242Z,3.10
2018-09-11T08:40:18.135Z,2.70
2018-09-11T08:42:22.455Z,2.50
2018-09-11T08:44:28.311Z,2.60
2018-09-11T08:46:32.419Z,2.53
2018-09-11T08:48:37.746Z,2.43
2018-09-11T08:50:42.063Z,2.80
2018-09-11T08:52:47.091Z,2.27
2018-09-11T08:54:51.368Z,2.80
2018-09-11T08:56:55.759Z,2.70
2018-09-11T08:58:59.678Z,2.80
2018-09-11T09:01:03.704Z,2.80
2018-09-11T09:03:07.771Z,2.80
2018-09-11T09:05:11.781Z,2.53
2018-09-11T09:07:16.025Z,2.47
2018-09-11T09:09:20.019Z,2.60
2018-09-11T09:11:24.043Z,2.83
2018-09-11T09:13:33.549Z,3.10
2018-09-11T09:15:39.296Z,2.73
2018-09-11T09:17:44.036Z,3.03
2018-09-11T09:19:48.355Z,2.40
2018-09-11T09:21:52.351Z,2.90
2018-09-11T09:23:58.528Z,2.90
2018-09-11T09:26:02.819Z,2.70
2018-09-11T09:28:17.618Z,2.70
2018-09-11T09:30:22.106Z,2.80
2018-09-11T09:32:27.040Z,2.20
2018-09-11T09:34:32.270Z,2.27
2018-09-11T09:36:37.535Z,2.05
2018-09-11T09:38:48.611Z,2.77
2018-09-11T09:40:57.069Z,2.10
2018-09-11T09:43:22.681Z,2.30
2018-09-11T09:45:28.312Z,2.57
2018-09-11T09:47:33.301Z,2.30
2018-09-11T09:49:38.762Z,2.20
2018-09-11T09:51:46.508Z,2.37
2018-09-11T09:53:52.531Z,2.80
2018-09-11T09:56:03.962Z,2.60
2018-09-11T09:58:15.298Z,2.70
2018-09-11T10:00:41.872Z,2.40
2018-09-11T10:02:56.815Z,2.67
2018-09-11T10:05:04.877Z,2.30
2018-09-11T10:07:09.647Z,2.30
2018-09-11T10:09:17.099Z,2.27
2018-09-11T10:11:28.476Z,2.30
2018-09-11T10:13:35.293Z,2.30
2018-09-11T10:15:41.726Z,2.30
2018-09-11T10:17:49.841Z,2.43
2018-09-11T10:19:55.658Z,2.13
2018-09-11T10:22:03.433Z,2.60
2018-09-11T10:24:22.315Z,2.20
2018-09-11T10:26:33.211Z,2.17
2018-09-11T10:28:43.994Z,2.20
2018-09-11T10:30:50.817Z,1.80
2018-09-11T10:32:57.335Z,2.07
2018-09-11T10:35:09.308Z,2.40
2018-09-11T10:37:14.877Z,2.23
2018-09-11T10:41:49.287Z,2.33
2018-09-11T10:43:58.293Z,1.87
2018-09-11T10:46:05.774Z,2.30
2018-09-11T10:48:12.968Z,2.20
2018-09-11T10:50:27.270Z,2.05
2018-09-11T10:52:33.283Z,2.10
2018-09-11T10:54:38.601Z,2.60
2018-09-11T10:56:44.649Z,2.00
2018-09-11T10:58:48.860Z,2.10
2018-09-11T11:00:58.003Z,2.23
2018-09-11T11:03:11.790Z,2.33
2018-09-11T11:05:17.260Z,2.40
2018-09-11T11:07:27.510Z,2.47
2018-09-11T11:09:33.502Z,2.08
2018-09-11T11:11:38.979Z,2.52
2018-09-11T11:13:43.646Z,2.20
2018-09-11T11:16:01.803Z,2.35
2018-09-11T11:18:17.015Z,2.10
2018-09-11T11:20:28.917Z,2.20
2018-09-11T11:22:33.877Z,2.00
2018-09-11T11:24:42.542Z,1.83
2018-09-11T11:26:47.410Z,1.98
2018-09-11T11:28:56.646Z,1.87
2018-09-11T11:31:06.993Z,1.73
2018-09-11T11:33:13.780Z,2.27
2018-09-11T11:35:25.033Z,2.30
2018-09-11T11:37:41.334Z,2.35
2018-09-11T11:39:45.599Z,2.10
2018-09-11T11:41:53.770Z,2.40
2018-09-11T11:43:59.466Z,2.17
2018-09-11T11:46:14.000Z,2.37
2018-09-11T11:48:34.422Z,2.15
2018-09-11T11:50:51.406Z,2.20
2018-09-11T11:52:57.074Z,2.67
2018-09-11T11:55:10.582Z,2.58
2018-09-11T11:57:22.342Z,2.97
2018-09-11T11:59:35.341Z,2.77
2018-09-11T12:01:44.846Z,2.83
2018-09-11T12:03:54.186Z,2.33
2018-09-11T12:06:04.022Z,2.47
2018-09-11T12:08:11.671Z,2.20
2018-09-11T12:10:27.061Z,2.10
2018-09-11T12:12:37.971Z,2.35
2018-09-11T12:14:54.537Z,2.50
2018-09-11T12:17:05.691Z,2.10
2018-09-11T12:21:56.719Z,2.30
2018-09-11T12:26:22.752Z,2.22
2018-09-11T12:28:27.467Z,2.20
2018-09-11T12:30:33.547Z,2.33
2018-09-11T12:32:37.575Z,2.45
2018-09-11T12:34:41.955Z,2.65
2018-09-11T12:36:46.993Z,2.42
2018-09-11T12:38:53.458Z,2.40
2018-09-11T12:41:01.490Z,2.20
2018-09-11T12:43:06.722Z,2.40
2018-09-11T12:45:17.130Z,2.15
2018-09-11T12:47:23.664Z,2.25
2018-09-11T12:49:27.966Z,2.05
2018-09-11T12:51:32.026Z,2.15
2018-09-11T12:53:36.284Z,1.95
2018-09-11T12:55:41.773Z,2.33
2018-09-11T12:57:45.719Z,2.47
2018-09-11T12:59:51.617Z,2.20
2018-09-11T13:01:56.433Z,2.50
2018-09-11T13:04:01.211Z,2.60
2018-09-11T13:06:08.241Z,2.30
2018-09-11T13:08:14.404Z,2.40
2018-09-11T13:10:20.584Z,2.42
2018-09-11T13:12:26.454Z,2.33
2018-09-11T13:14:33.265Z,2.20
2018-09-11T13:16:37.276Z,2.10
2018-09-11T13:18:41.674Z,2.02
2018-09-11T13:20:47.633Z,2.58
2018-09-11T13:22:52.715Z,2.30
2018-09-11T13:25:00.066Z,2.70
2018-09-11T13:27:04.676Z,2.42
2018-09-11T13:29:13.114Z,2.30
2018-09-11T13:31:17.790Z,2.20
2018-09-11T13:33:23.076Z,2.50
2018-09-11T13:35:27.415Z,2.37
2018-09-11T13:37:32.678Z,2.52
2018-09-11T13:39:36.748Z,2.30
2018-09-11T13:41:40.745Z,2.77
2018-09-11T13:43:45.199Z,2.50
2018-09-11T13:45:50.862Z,2.37
2018-09-11T13:47:55.778Z,2.62
2018-09-11T13:50:02.035Z,2.47
2018-09-11T13:52:06.541Z,2.37
2018-09-11T13:54:10.969Z,2.50
2018-09-11T13:56:15.078Z,2.45
2018-09-11T13:58:26.048Z,2.40
2018-09-11T14:03:03.902Z,2.45
2018-09-11T14:14:13.214Z,2.87
2018-09-11T14:21:55.389Z,2.55
2018-09-11T14:24:10.102Z,3.08
2018-09-11T14:30:01.796Z,4.33
2018-09-11T14:32:31.579Z,2.75
2018-09-11T14:34:49.749Z,3.33
2018-09-11T14:37:13.714Z,3.15
2018-09-11T14:40:20.531Z,2.70
2018-09-11T14:43:48.955Z,3.20
2018-09-11T14:46:28.055Z,2.47
2018-09-11T14:49:05.377Z,2.50
2018-09-11T14:58:03.395Z,3.40
2018-09-11T15:03:42.776Z,2.70
2018-09-11T15:11:52.268Z,2.92
2018-09-11T15:17:20.296Z,2.55
2018-09-11T15:20:13.466Z,2.47
2018-09-11T15:22:32.483Z,2.30
2018-09-11T15:24:57.745Z,2.90
2018-09-11T15:37:38.588Z,2.77
2018-09-11T15:43:04.524Z,2.60
2018-09-11T15:45:50.978Z,2.37
2018-09-11T15:48:20.331Z,2.45
2018-09-11T15:50:57.200Z,2.40
2018-09-11T15:58:53.144Z,2.70
2018-09-11T16:01:41.060Z,2.75
2018-09-11T16:04:31.398Z,2.90
2018-09-11T16:10:34.115Z,2.77
2018-09-11T16:13:04.138Z,2.47
2018-09-11T16:22:16.535Z,2.90
2018-09-11T16:25:30.229Z,2.60
2018-09-11T16:33:11.608Z,3.15
2018-09-11T16:35:31.298Z,3.25
2018-09-11T16:37:58.796Z,3.08
2018-09-11T16:40:50.761Z,2.75
2018-09-11T16:43:29.364Z,3.08
2018-09-11T16:51:42.359Z,3.10
2018-09-11T16:54:14.465Z,3.00
2018-09-11T16:56:52.959Z,3.10
2018-09-11T17:05:06.642Z,3.50
2018-09-11T17:26:48.889Z,3.13
2018-09-11T17:30:03.484Z,3.07
2018-09-11T17:41:16.664Z,3.47
2018-09-11T17:50:46.390Z,3.10
2018-09-11T18:05:50.506Z,3.13
2018-09-11T18:08:38.346Z,3.33
2018-09-11T18:19:41.992Z,3.73
2018-09-11T18:22:31.026Z,3.20
2018-09-11T18:25:12.728Z,3.50
2018-09-11T18:34:24.655Z,3.33
2018-09-11T18:37:30.692Z,3.80
2018-09-11T18:43:09.232Z,3.63
2018-09-11T18:50:23.353Z,3.73
2018-09-11T18:53:12.911Z,3.73
2018-09-11T18:58:56.729Z,3.43
2018-09-11T19:01:17.681Z,3.13
2018-09-11T19:06:43.554Z,3.90
2018-09-11T19:09:57.179Z,3.97
2018-09-11T19:18:19.460Z,3.67
2018-09-11T19:23:10.622Z,3.53
2018-09-11T19:31:10.277Z,3.60
2018-09-11T19:33:44.480Z,3.90
2018-09-11T19:36:22.124Z,3.63
2018-09-11T19:51:38.622Z,3.87
2018-09-11T19:54:23.934Z,3.63
2018-09-11T19:56:50.161Z,3.70
2018-09-11T20:02:28.392Z,4.50
2018-09-11T20:07:46.545Z,4.10
2018-09-11T20:10:00.641Z,3.90
2018-09-11T20:12:31.669Z,4.40
2018-09-11T20:15:07.680Z,4.70
2018-09-11T20:17:40.414Z,4.30
2018-09-11T20:19:51.561Z,4.13
2018-09-11T20:22:52.498Z,4.30
2018-09-11T20:28:29.723Z,4.60
2018-09-11T20:31:11.030Z,4.17
2018-09-11T20:33:26.117Z,4.60
2018-09-11T20:36:09.998Z,4.20
2018-09-11T20:38:27.766Z,4.40
2018-09-11T20:41:05.218Z,4.57
2018-09-11T20:43:25.577Z,4.00
2018-09-11T20:45:38.560Z,4.50
2018-09-11T20:48:01.410Z,4.20
2018-09-11T20:52:56.992Z,3.63
2018-09-11T20:58:01.843Z,4.10
2018-09-11T21:00:24.027Z,3.93
2018-09-11T21:03:23.352Z,3.87
2018-09-11T21:06:06.559Z,4.87
2018-09-11T21:10:18.263Z,4.57
2018-09-11T21:12:40.911Z,4.30
2018-09-11T21:15:16.136Z,4.40
2018-09-11T21:17:40.160Z,3.93
2018-09-11T21:24:56.193Z,4.17
2018-09-11T21:36:56.155Z,4.50
2018-09-11T21:50:31.846Z,4.07
2018-09-11T22:00:58.583Z,4.40
2018-09-11T22:03:56.695Z,4.60
2018-09-11T22:06:20.122Z,3.90
2018-09-11T22:11:47.168Z,3.83
2018-09-11T22:14:44.695Z,4.40
2018-09-11T22:17:03.731Z,4.10
2018-09-11T22:25:01.652Z,4.70
2018-09-11T22:27:18.591Z,4.47
2018-09-11T22:29:39.014Z,4.57
2018-09-11T22:32:21.581Z,4.40
2018-09-11T22:34:41.412Z,4.67
2018-09-11T22:37:28.470Z,4.97
2018-09-11T22:39:44.503Z,4.30
2018-09-11T22:44:50.764Z,4.40
2018-09-11T22:47:12.112Z,4.83
2018-09-11T22:54:33.547Z,4.50
2018-09-11T23:02:47.430Z,5.40
2018-09-11T23:05:03.511Z,4.60
2018-09-11T23:10:15.977Z,4.83
2018-09-11T23:18:25.499Z,4.90
2018-09-11T23:21:06.374Z,4.93
2018-09-11T23:28:35.670Z,4.33
2018-09-11T23:31:13.635Z,5.10
2018-09-11T23:33:34.094Z,4.60
2018-09-11T23:39:03.214Z,5.17
2018-09-11T23:43:48.100Z,4.93
2018-09-11T23:45:54.721Z,5.50
2018-09-11T23:56:33.341Z,5.07
2018-09-11T23:59:06.692Z,5.13
